Time;durP1;ratioP1;P1;durP2;ratioP2;P2;SDS_P1;SDS_P2;PMS_P1;PMS_P2;Temp;Humidity;BMP_temperature;BMP_pressure;BME280_temperature;BME280_humidity;BME280_pressure;Samples;Min_cycle;Max_cycle;Signal;HPM_P1;HPM_P2
2022/07/13 00:01:48;;;;;;;0.75;0.63;;;27.20;55.30;;;;;;6126794;23;20077;-69
2022/07/13 00:04:14;;;;;;;2.63;0.60;;;27.20;55.30;;;;;;6127040;23;20077;-69
2022/07/13 00:06:39;;;;;;;1.75;0.65;;;27.20;55.40;;;;;;6126499;23;20073;-69
2022/07/13 00:09:05;;;;;;;0.75;0.60;;;27.20;55.30;;;;;;6126798;23;20350;-69
2022/07/13 00:11:30;;;;;;;1.35;0.50;;;27.10;55.10;;;;;;6126868;23;20082;-69
2022/07/13 00:13:56;;;;;;;0.57;0.57;;;27.10;55.20;;;;;;6126605;23;20407;-69
2022/07/13 00:16:22;;;;;;;2.83;0.80;;;27.10;55.20;;;;;;6126814;23;20065;-69
2022/07/13 00:18:48;;;;;;;0.93;0.60;;;27.10;55.30;;;;;;6126659;23;20373;-69
2022/07/13 00:21:13;;;;;;;1.67;1.00;;;27.10;55.20;;;;;;6126472;23;20001;-69
2022/07/13 00:23:39;;;;;;;0.65;0.60;;;27.10;55.20;;;;;;6126844;23;20441;-69
2022/07/13 00:26:05;;;;;;;0.40;0.40;;;27.10;55.40;;;;;;6126639;23;20085;-69
2022/07/13 00:28:30;;;;;;;1.55;0.75;;;27.10;55.30;;;;;;6126623;23;20391;-69
2022/07/13 00:30:56;;;;;;;0.85;0.50;;;27.10;55.30;;;;;;6125944;23;20002;-69
2022/07/13 00:33:21;;;;;;;0.75;0.57;;;27.10;56.40;;;;;;6126587;23;19998;-69
2022/07/13 00:35:47;;;;;;;1.33;0.60;;;27.10;55.80;;;;;;6126404;23;20009;-69
2022/07/13 00:38:13;;;;;;;1.33;0.63;;;27.10;55.90;;;;;;6126624;23;20002;-69
2022/07/13 00:40:38;;;;;;;0.45;0.45;;;27.10;56.00;;;;;;6126685;23;20442;-69
2022/07/13 00:43:04;;;;;;;1.42;0.70;;;27.00;56.10;;;;;;6126420;23;20028;-69
2022/07/13 00:45:30;;;;;;;0.75;0.68;;;27.10;56.00;;;;;;6126631;23;20002;-69
2022/07/13 00:47:55;;;;;;;1.98;0.70;;;27.00;55.90;;;;;;6126313;23;20354;-69
2022/07/13 00:50:21;;;;;;;1.27;0.57;;;27.00;56.00;;;;;;6100183;23;20056;-69
2022/07/13 00:52:47;;;;;;;1.00;0.77;;;27.00;55.80;;;;;;6100574;23;20083;-69
2022/07/13 00:55:13;;;;;;;0.50;0.50;;;27.00;56.00;;;;;;6100719;23;20002;-69
2022/07/13 00:57:38;;;;;;;2.15;0.55;;;27.00;55.90;;;;;;6126494;23;20056;-70
2022/07/13 01:00:10;;;;;;;0.52;0.50;;;27.00;56.00;;;;;;6100423;23;20013;-70
2022/07/13 01:02:45;;;;;;;0.85;0.55;;;27.00;56.00;;;;;;6100843;23;20002;-70
2022/07/13 01:05:12;;;;;;;2.30;0.60;;;27.00;56.00;;;;;;6100382;23;20002;-70
2022/07/13 01:07:37;;;;;;;1.05;0.60;;;27.00;56.00;;;;;;6100467;23;20225;-70
2022/07/13 01:10:06;;;;;;;1.17;0.80;;;27.00;56.00;;;;;;6100158;23;20442;-70
2022/07/13 01:12:33;;;;;;;1.42;0.88;;;27.00;56.00;;;;;;6126292;23;20003;-70
2022/07/13 01:14:59;;;;;;;1.17;0.70;;;26.90;56.00;;;;;;6126166;23;20022;-70
2022/07/13 01:17:29;;;;;;;0.80;0.68;;;26.90;56.10;;;;;;6100228;23;20301;-70
2022/07/13 01:19:55;;;;;;;0.50;0.50;;;27.00;56.00;;;;;;6100365;23;20002;-70
2022/07/13 01:22:33;;;;;;;1.05;0.70;;;26.90;56.00;;;;;;6100475;23;20002;-70
2022/07/13 01:24:59;;;;;;;0.40;0.40;;;26.90;56.00;;;;;;6101126;23;20022;-70
2022/07/13 01:27:25;;;;;;;0.98;0.65;;;26.90;56.20;;;;;;6100531;23;20001;-70
2022/07/13 01:29:51;;;;;;;0.77;0.60;;;26.90;56.10;;;;;;6100099;23;20006;-70
2022/07/13 01:32:17;;;;;;;1.35;0.60;;;26.90;56.10;;;;;;6100016;23;20077;-70
2022/07/13 01:34:42;;;;;;;0.85;0.50;;;26.90;56.10;;;;;;6126088;23;20033;-70
2022/07/13 01:37:08;;;;;;;0.85;0.52;;;26.90;56.00;;;;;;6126118;23;20085;-70
2022/07/13 01:39:34;;;;;;;0.50;0.50;;;26.90;56.10;;;;;;6100553;23;20382;-70
2022/07/13 01:42:00;;;;;;;1.15;0.73;;;26.90;56.10;;;;;;6125640;23;20012;-70
2022/07/13 01:44:26;;;;;;;0.95;0.55;;;26.90;56.20;;;;;;6126047;23;20001;-70
2022/07/13 01:46:52;;;;;;;0.98;0.60;;;26.90;56.10;;;;;;6125799;23;20012;-70
2022/07/13 01:49:17;;;;;;;1.15;0.60;;;26.90;56.30;;;;;;6126279;23;20009;-70
2022/07/13 01:51:43;;;;;;;0.73;0.60;;;26.90;56.10;;;;;;6125854;23;20018;-70
2022/07/13 01:54:09;;;;;;;0.75;0.60;;;26.90;56.20;;;;;;6125778;23;20006;-70
2022/07/13 01:56:34;;;;;;;0.90;0.68;;;26.90;56.20;;;;;;6125665;23;20005;-70
2022/07/13 01:59:00;;;;;;;0.60;0.60;;;26.90;56.20;;;;;;6125845;23;20029;-70
2022/07/13 02:01:26;;;;;;;0.77;0.50;;;26.80;56.20;;;;;;6125732;23;20040;-70
2022/07/13 02:03:52;;;;;;;0.93;0.60;;;26.80;56.10;;;;;;6100047;23;20002;-70
2022/07/13 02:06:18;;;;;;;1.13;0.60;;;26.80;56.20;;;;;;6125833;23;20006;-70
2022/07/13 02:08:43;;;;;;;1.40;0.50;;;26.80;56.30;;;;;;6099903;23;20006;-70
2022/07/13 02:11:17;;;;;;;0.60;0.55;;;26.80;56.30;;;;;;6099820;23;20002;-70
2022/07/13 02:13:44;;;;;;;0.50;0.43;;;26.80;56.30;;;;;;6100166;23;20125;-70
2022/07/13 02:16:10;;;;;;;0.55;0.55;;;26.80;56.30;;;;;;6099511;23;20013;-70
2022/07/13 02:18:36;;;;;;;0.47;0.47;;;26.80;56.40;;;;;;6125687;23;20005;-70
2022/07/13 02:21:02;;;;;;;0.50;0.50;;;26.80;56.40;;;;;;6125532;23;20327;-70
2022/07/13 02:23:27;;;;;;;0.98;0.60;;;26.80;56.40;;;;;;6125718;23;20006;-70
2022/07/13 02:25:53;;;;;;;0.77;0.60;;;26.80;56.40;;;;;;6125432;23;20081;-70
2022/07/13 02:28:19;;;;;;;0.50;0.50;;;26.80;56.40;;;;;;6099512;23;20454;-70
2022/07/13 02:30:44;;;;;;;0.75;0.60;;;26.70;56.40;;;;;;6125238;23;20017;-70
2022/07/13 02:33:11;;;;;;;1.48;0.50;;;26.80;56.50;;;;;;6125386;23;19998;-70
2022/07/13 02:35:36;;;;;;;0.77;0.60;;;26.70;56.30;;;;;;6125735;23;20076;-70
2022/07/13 02:38:02;;;;;;;0.75;0.50;;;26.70;56.30;;;;;;6125373;23;20041;-70
2022/07/13 02:40:28;;;;;;;0.40;0.40;;;26.70;56.50;;;;;;6125448;23;20005;-70
2022/07/13 02:42:53;;;;;;;0.82;0.40;;;26.80;56.60;;;;;;6125758;23;20005;-70
2022/07/13 02:45:19;;;;;;;0.65;0.47;;;26.70;56.50;;;;;;6125085;23;20434;-70
2022/07/13 02:47:45;;;;;;;0.45;0.40;;;26.70;56.50;;;;;;6125617;23;20080;-70
2022/07/13 02:50:10;;;;;;;0.90;0.60;;;26.70;56.60;;;;;;6124883;23;20044;-70
2022/07/13 02:52:37;;;;;;;0.60;0.60;;;26.70;56.60;;;;;;6099490;23;20069;-70
2022/07/13 02:55:03;;;;;;;0.70;0.50;;;26.70;56.60;;;;;;6125009;23;20073;-70
2022/07/13 02:57:28;;;;;;;0.43;0.43;;;26.70;56.50;;;;;;6125622;23;20374;-70
2022/07/13 02:59:54;;;;;;;0.45;0.40;;;26.70;57.50;;;;;;6099039;23;20346;-70
2022/07/13 03:02:20;;;;;;;0.43;0.43;;;26.70;56.50;;;;;;6125452;23;20521;-70
2022/07/13 03:04:46;;;;;;;1.40;0.50;;;26.60;56.40;;;;;;6125365;23;20454;-70
2022/07/13 03:07:11;;;;;;;1.85;0.45;;;26.70;56.50;;;;;;6099355;23;20060;-70
2022/07/13 03:09:37;;;;;;;1.85;0.50;;;26.70;56.60;;;;;;6125283;23;20011;-70
2022/07/13 03:12:03;;;;;;;0.50;0.50;;;26.60;56.50;;;;;;6125111;23;20002;-70
2022/07/13 03:14:28;;;;;;;0.88;0.52;;;26.70;56.50;;;;;;6125345;23;20073;-70
2022/07/13 03:16:54;;;;;;;0.50;0.50;;;26.70;56.60;;;;;;6125170;23;20069;-70
2022/07/13 03:19:19;;;;;;;1.02;0.47;;;26.60;56.50;;;;;;6125041;23;20002;-70
2022/07/13 03:21:45;;;;;;;1.95;0.60;;;26.70;56.60;;;;;;6125357;23;20006;-70
2022/07/13 03:24:11;;;;;;;0.68;0.50;;;26.60;56.50;;;;;;6125174;23;20006;-70
2022/07/13 03:26:36;;;;;;;0.52;0.47;;;26.60;56.50;;;;;;6125235;23;20073;-70
2022/07/13 03:29:02;;;;;;;0.35;0.35;;;26.60;56.60;;;;;;6124941;23;20028;-70
2022/07/13 03:31:28;;;;;;;0.47;0.40;;;26.60;56.60;;;;;;6125017;23;20508;-70
2022/07/13 03:33:54;;;;;;;0.50;0.50;;;26.60;56.50;;;;;;6125135;23;20458;-70
2022/07/13 03:36:19;;;;;;;1.50;0.40;;;26.60;56.50;;;;;;6125134;23;20073;-70
2022/07/13 03:38:45;;;;;;;0.50;0.40;;;26.60;56.50;;;;;;6125502;23;20006;-70
2022/07/13 03:41:11;;;;;;;0.40;0.40;;;26.60;56.60;;;;;;6125298;23;20104;-70
2022/07/13 03:43:36;;;;;;;0.47;0.47;;;26.60;56.50;;;;;;6124925;23;20525;-70
2022/07/13 03:46:02;;;;;;;0.65;0.50;;;26.60;56.50;;;;;;6124810;23;20077;-70
2022/07/13 03:48:27;;;;;;;0.40;0.40;;;26.60;56.50;;;;;;6125121;23;20081;-70
2022/07/13 03:50:53;;;;;;;0.47;0.40;;;26.60;56.50;;;;;;6124892;23;20109;-70
2022/07/13 03:53:19;;;;;;;0.88;0.60;;;26.60;56.60;;;;;;6124884;23;19998;-70
2022/07/13 03:55:44;;;;;;;0.40;0.40;;;26.60;56.60;;;;;;6125231;23;20006;-70
2022/07/13 03:58:10;;;;;;;0.40;0.40;;;26.50;56.50;;;;;;6098869;23;20057;-70
2022/07/13 04:00:37;;;;;;;0.40;0.40;;;26.50;56.50;;;;;;6125059;23;20003;-70
2022/07/13 04:03:02;;;;;;;0.88;0.40;;;26.50;56.50;;;;;;6099569;23;20002;-70
2022/07/13 04:05:28;;;;;;;0.70;0.70;;;26.50;56.50;;;;;;6100126;23;20032;-70
2022/07/13 04:07:54;;;;;;;0.52;0.50;;;26.50;56.40;;;;;;6126798;23;20006;-70
2022/07/13 04:10:19;;;;;;;0.60;0.50;;;26.50;56.50;;;;;;6126684;23;20331;-70
2022/07/13 04:12:45;;;;;;;1.33;0.45;;;26.50;56.50;;;;;;6126707;23;20076;-70
2022/07/13 04:15:11;;;;;;;0.60;0.40;;;26.50;56.60;;;;;;6126524;23;20002;-70
2022/07/13 04:17:37;;;;;;;0.47;0.47;;;26.50;56.40;;;;;;6126945;23;20362;-70
2022/07/13 04:20:03;;;;;;;0.40;0.30;;;26.50;56.40;;;;;;6100870;23;20005;-70
2022/07/13 04:22:29;;;;;;;1.58;0.50;;;26.50;56.50;;;;;;6126960;23;20002;-70
2022/07/13 04:24:54;;;;;;;0.40;0.40;;;26.50;56.50;;;;;;6126831;23;20057;-70
2022/07/13 04:27:20;;;;;;;1.15;0.50;;;26.50;56.50;;;;;;6126363;23;20025;-70
2022/07/13 04:29:46;;;;;;;0.60;0.40;;;26.50;56.40;;;;;;6126691;23;19998;-70
2022/07/13 04:32:12;;;;;;;0.40;0.40;;;26.50;56.50;;;;;;6126381;23;20009;-70
2022/07/13 04:34:37;;;;;;;1.27;0.47;;;26.50;56.40;;;;;;6126537;23;20068;-70
2022/07/13 04:37:03;;;;;;;0.80;0.40;;;26.50;56.40;;;;;;6126589;23;20005;-70
2022/07/13 04:39:28;;;;;;;0.75;0.40;;;26.50;56.40;;;;;;6126573;23;20049;-70
2022/07/13 04:41:54;;;;;;;0.40;0.40;;;26.50;56.40;;;;;;6126370;23;20005;-70
2022/07/13 04:44:20;;;;;;;0.47;0.47;;;26.40;56.30;;;;;;6126408;23;20462;-70
2022/07/13 04:46:46;;;;;;;6.43;0.40;;;26.40;56.30;;;;;;6126536;23;20362;-70
2022/07/13 04:49:12;;;;;;;3.30;0.40;;;26.40;56.30;;;;;;6126796;23;20010;-70
2022/07/13 04:51:37;;;;;;;2.15;0.50;;;26.40;56.30;;;;;;6100413;23;20486;-70
2022/07/13 04:54:03;;;;;;;0.43;0.40;;;26.40;56.30;;;;;;6126361;23;20088;-70
2022/07/13 04:56:28;;;;;;;0.68;0.50;;;26.40;57.40;;;;;;6100257;23;20073;-70
2022/07/13 04:58:54;;;;;;;0.45;0.45;;;26.40;56.20;;;;;;6126578;23;20076;-70
2022/07/13 05:01:20;;;;;;;1.40;0.50;;;26.40;56.30;;;;;;6126078;23;20002;-70
2022/07/13 05:03:45;;;;;;;0.50;0.50;;;26.40;56.30;;;;;;6126545;23;20481;-70
2022/07/13 05:06:13;;;;;;;0.75;0.50;;;26.40;56.40;;;;;;6126268;23;20033;-70
2022/07/13 05:08:39;;;;;;;0.38;0.38;;;26.40;56.40;;;;;;6126338;23;20006;-70
2022/07/13 05:11:05;;;;;;;2.08;0.40;;;26.40;56.40;;;;;;6100420;23;20005;-70
2022/07/13 05:13:31;;;;;;;4.35;0.40;;;26.40;56.50;;;;;;6100603;23;20323;-70
2022/07/13 05:15:57;;;;;;;4.35;0.40;;;26.40;56.80;;;;;;6126273;23;20009;-70
2022/07/13 05:18:22;;;;;;;1.30;0.45;;;26.40;56.90;;;;;;6125861;23;20081;-70
2022/07/13 05:20:48;;;;;;;1.17;0.40;;;26.40;57.00;;;;;;6126120;23;20021;-70
2022/07/13 05:23:14;;;;;;;1.30;0.60;;;26.40;57.00;;;;;;6100090;23;20443;-70
2022/07/13 05:25:39;;;;;;;1.80;0.50;;;26.40;57.10;;;;;;6100184;23;20077;-70
2022/07/13 05:28:05;;;;;;;0.50;0.50;;;26.40;57.10;;;;;;6125195;23;20407;-69
2022/07/13 05:30:31;;;;;;;1.95;0.50;;;26.40;57.10;;;;;;6124968;23;20013;-70
2022/07/13 05:32:56;;;;;;;0.65;0.43;;;26.40;57.20;;;;;;6125363;23;20005;-70
2022/07/13 05:35:22;;;;;;;0.30;0.30;;;26.40;57.30;;;;;;6124975;23;20005;-70
2022/07/13 05:37:48;;;;;;;2.10;0.45;;;26.40;57.30;;;;;;6125186;23;19998;-70
2022/07/13 05:40:13;;;;;;;2.15;0.50;;;26.40;57.40;;;;;;6124778;23;20485;-70
2022/07/13 05:42:39;;;;;;;0.40;0.40;;;26.40;57.40;;;;;;6099056;23;20006;-70
2022/07/13 05:45:05;;;;;;;2.60;0.50;;;26.40;57.40;;;;;;6098875;23;20025;-70
2022/07/13 05:47:31;;;;;;;0.75;0.52;;;26.40;57.40;;;;;;6125816;23;20005;-70
2022/07/13 05:49:57;;;;;;;0.50;0.50;;;26.40;57.50;;;;;;6125746;23;20450;-70
2022/07/13 05:52:24;;;;;;;0.35;0.35;;;26.40;57.50;;;;;;6125725;23;20002;-70
2022/07/13 05:54:50;;;;;;;0.65;0.50;;;26.40;57.50;;;;;;6125801;23;20450;-70
2022/07/13 05:57:16;;;;;;;0.73;0.38;;;26.40;57.60;;;;;;6099899;23;20082;-70
2022/07/13 05:59:41;;;;;;;2.70;0.50;;;26.40;57.60;;;;;;6126060;23;20072;-70
2022/07/13 06:02:07;;;;;;;2.97;0.50;;;26.40;57.70;;;;;;6125584;23;20037;-70
2022/07/13 06:04:32;;;;;;;1.30;0.50;;;26.40;57.70;;;;;;6125908;23;20002;-70
2022/07/13 06:06:58;;;;;;;1.75;0.43;;;26.40;57.70;;;;;;6126332;23;20056;-70
2022/07/13 06:09:24;;;;;;;0.75;0.50;;;26.40;57.80;;;;;;6099581;23;20010;-70
2022/07/13 06:11:50;;;;;;;0.50;0.40;;;26.40;57.80;;;;;;6099871;23;20009;-70
2022/07/13 06:14:15;;;;;;;1.33;0.50;;;26.40;57.80;;;;;;6125829;23;20034;-70
2022/07/13 06:16:41;;;;;;;0.30;0.30;;;26.40;57.90;;;;;;6125765;23;20419;-70
2022/07/13 06:19:07;;;;;;;0.68;0.50;;;26.40;57.80;;;;;;6125813;23;20002;-70
2022/07/13 06:21:32;;;;;;;0.47;0.40;;;26.50;58.00;;;;;;6100361;23;20040;-70
2022/07/13 06:23:58;;;;;;;0.73;0.40;;;26.40;58.00;;;;;;6125871;23;20011;-70
2022/07/13 06:26:23;;;;;;;0.30;0.30;;;26.40;58.00;;;;;;6126133;23;20053;-70
2022/07/13 06:28:49;;;;;;;3.53;0.60;;;26.40;58.00;;;;;;6125932;23;20006;-70
2022/07/13 06:31:15;;;;;;;2.50;0.30;;;26.50;58.20;;;;;;6126137;23;20012;-70
2022/07/13 06:33:43;;;;;;;0.47;0.40;;;26.50;58.20;;;;;;6126348;23;20065;-69
2022/07/13 06:36:09;;;;;;;0.40;0.40;;;26.50;58.20;;;;;;6126172;23;20025;-68
2022/07/13 06:38:34;;;;;;;0.70;0.45;;;26.50;58.20;;;;;;6126060;23;19998;-68
2022/07/13 06:41:00;;;;;;;0.40;0.40;;;26.50;58.20;;;;;;6126324;23;20002;-68
2022/07/13 06:43:26;;;;;;;1.95;0.40;;;26.50;58.30;;;;;;6100150;23;20010;-68
2022/07/13 06:45:51;;;;;;;2.40;0.50;;;26.40;58.30;;;;;;6126189;23;20085;-68
2022/07/13 06:48:17;;;;;;;0.68;0.40;;;26.50;58.30;;;;;;6125943;23;20006;-68
2022/07/13 06:50:43;;;;;;;0.80;0.32;;;26.50;58.40;;;;;;6125862;23;20017;-68
2022/07/13 06:53:08;;;;;;;0.85;0.43;;;26.50;58.40;;;;;;6125852;23;20013;-68
2022/07/13 06:55:34;;;;;;;0.50;0.50;;;26.50;58.40;;;;;;6126132;23;20383;-68
2022/07/13 06:58:00;;;;;;;1.65;0.40;;;26.40;58.30;;;;;;6125865;23;19998;-68
2022/07/13 07:00:26;;;;;;;2.30;0.70;;;26.50;58.50;;;;;;6125668;23;20036;-68
2022/07/13 07:02:52;;;;;;;0.75;0.40;;;26.50;58.40;;;;;;6126014;23;20006;-69
2022/07/13 07:05:17;;;;;;;1.70;0.40;;;26.50;58.40;;;;;;6125833;23;20060;-68
2022/07/13 07:07:43;;;;;;;0.32;0.32;;;26.50;58.60;;;;;;6126002;23;20028;-68
2022/07/13 07:10:09;;;;;;;0.43;0.43;;;26.50;58.50;;;;;;6125864;23;20476;-68
2022/07/13 07:12:35;;;;;;;5.70;0.50;;;26.50;58.60;;;;;;6125406;23;20056;-68
2022/07/13 07:15:01;;;;;;;1.50;1.38;;;26.50;58.60;;;;;;6125626;23;20382;-66
2022/07/13 07:17:27;;;;;;;2.83;2.30;;;26.50;57.60;;;;;;6125576;23;20073;-76
2022/07/13 07:19:58;;;;;;;2.35;2.20;;;26.30;56.40;;;;;;6099910;23;20037;-76
2022/07/13 07:22:24;;;;;;;3.50;3.20;;;26.30;56.10;;;;;;6100296;23;20005;-76
2022/07/13 07:24:50;;;;;;;4.25;3.83;;;26.30;55.80;;;;;;6126096;23;20060;-75
2022/07/13 07:27:16;;;;;;;4.22;3.92;;;26.20;55.80;;;;;;6125697;23;20009;-75
2022/07/13 07:29:42;;;;;;;6.13;4.63;;;26.20;55.80;;;;;;6100448;23;20344;-75
2022/07/13 07:32:08;;;;;;;5.25;4.55;;;26.30;55.60;;;;;;6099811;23;20354;-74
2022/07/13 07:34:33;;;;;;;5.43;4.93;;;26.30;55.80;;;;;;6125625;23;20021;-75
2022/07/13 07:36:59;;;;;;;6.85;5.95;;;26.20;55.90;;;;;;6126284;23;20006;-75
2022/07/13 07:39:26;;;;;;;6.22;5.68;;;26.20;56.10;;;;;;6125768;23;20037;-75
2022/07/13 07:41:51;;;;;;;5.82;5.28;;;26.20;56.20;;;;;;6128394;23;20006;-76
2022/07/13 07:44:18;;;;;;;6.50;5.90;;;26.20;56.30;;;;;;6127958;23;20013;-76
2022/07/13 07:46:44;;;;;;;6.18;5.68;;;26.20;56.50;;;;;;6102542;23;20380;-76
2022/07/13 07:49:10;;;;;;;7.75;6.35;;;26.20;56.80;;;;;;6101874;23;20005;-76
2022/07/13 07:51:36;;;;;;;6.72;6.10;;;26.30;56.70;;;;;;6101787;23;20350;-76
2022/07/13 07:54:01;;;;;;;6.57;6.05;;;26.30;57.00;;;;;;6102287;23;20411;-76
2022/07/13 07:56:27;;;;;;;9.18;6.18;;;26.30;57.00;;;;;;6102183;23;19998;-75
2022/07/13 07:58:53;;;;;;;7.28;6.35;;;26.40;57.00;;;;;;6102073;23;20001;-76
2022/07/13 08:01:18;;;;;;;8.07;6.15;;;26.50;56.80;;;;;;6127834;23;20081;-75
2022/07/13 08:03:44;;;;;;;6.55;6.00;;;26.50;56.90;;;;;;6101553;23;20013;-75
2022/07/13 08:06:11;;;;;;;8.98;6.90;;;26.50;57.20;;;;;;6128130;23;20430;-75
2022/07/13 08:08:37;;;;;;;7.38;6.68;;;26.40;57.20;;;;;;6127673;23;20005;-76
2022/07/13 08:11:03;;;;;;;7.20;6.47;;;26.50;57.10;;;;;;6127725;23;20002;-76
2022/07/13 08:13:30;;;;;;;6.80;6.10;;;26.50;57.20;;;;;;6127699;23;20437;-76
2022/07/13 08:15:56;;;;;;;6.75;5.88;;;26.50;57.10;;;;;;6101912;23;20414;-76
2022/07/13 08:18:21;;;;;;;6.82;5.85;;;26.50;57.00;;;;;;6101464;23;19998;-75
2022/07/13 08:20:47;;;;;;;7.18;6.43;;;26.50;57.30;;;;;;6127499;23;20065;-76
2022/07/13 08:25:57;;;;;;;6.90;6.20;;;26.50;57.80;;;;;;6105649;23;20017;-76
2022/07/13 08:28:23;;;;;;;8.63;6.20;;;26.50;57.60;;;;;;6101788;23;20077;-76
2022/07/13 08:30:48;;;;;;;8.10;5.53;;;26.50;57.50;;;;;;6101682;23;20013;-76
2022/07/13 08:33:14;;;;;;;6.07;5.28;;;26.50;57.30;;;;;;6126978;23;20072;-75
2022/07/13 08:38:37;;;;;;;5.82;5.00;;;26.60;57.10;;;;;;6126958;23;20013;-75
2022/07/13 08:41:04;;;;;;;6.80;4.78;;;26.60;56.60;;;;;;6127611;23;20006;-75
2022/07/13 08:43:29;;;;;;;6.13;4.10;;;26.60;56.70;;;;;;6101386;23;20009;-75
2022/07/13 08:45:55;;;;;;;3.92;3.50;;;26.60;57.40;;;;;;6127658;23;20445;-75
2022/07/13 08:48:31;;;;;;;5.68;4.10;;;26.60;56.20;;;;;;6101464;23;20013;-75
2022/07/13 08:50:57;;;;;;;5.05;4.25;;;26.60;56.20;;;;;;6126940;23;20052;-76
2022/07/13 08:53:23;;;;;;;7.20;4.28;;;26.70;56.20;;;;;;6101153;23;20318;-76
2022/07/13 08:55:49;;;;;;;9.13;3.50;;;26.70;56.10;;;;;;6101372;23;20025;-76
2022/07/13 08:58:16;;;;;;;4.53;3.63;;;26.70;56.00;;;;;;6101420;23;20005;-76
2022/07/13 09:00:42;;;;;;;3.95;3.30;;;26.70;55.80;;;;;;6101381;23;20690;-77
2022/07/13 09:03:11;;;;;;;4.72;2.85;;;26.60;55.90;;;;;;6077098;23;20351;-77
2022/07/13 09:05:36;;;;;;;5.78;3.10;;;26.70;55.50;;;;;;6101820;23;20048;-78
2022/07/13 09:08:04;;;;;;;4.35;2.72;;;26.70;55.30;;;;;;6101410;23;20002;-77
2022/07/13 09:10:30;;;;;;;3.90;2.90;;;26.70;55.50;;;;;;6101292;23;20009;-77
2022/07/13 09:12:55;;;;;;;4.72;2.70;;;26.70;55.50;;;;;;6127355;23;20025;-76
2022/07/13 09:15:21;;;;;;;2.80;2.58;;;26.70;55.50;;;;;;6126953;23;20005;-77
2022/07/13 09:17:47;;;;;;;4.00;2.80;;;26.80;55.40;;;;;;6126817;23;20005;-77
2022/07/13 09:20:13;;;;;;;3.50;2.60;;;26.80;55.50;;;;;;6101268;23;20009;-76
2022/07/13 09:22:55;;;;;;;4.72;2.45;;;26.80;55.60;;;;;;6126925;23;20002;-76
2022/07/13 09:25:32;;;;;;;;;;;26.90;55.60;;;;;;6102268;23;20002;-77
2022/07/13 09:28:01;;;;;;;2.70;2.50;;;26.90;55.60;;;;;;6127201;23;19904;-77
2022/07/13 09:30:27;;;;;;;2.53;2.33;;;26.90;55.60;;;;;;6126511;23;20590;-80
2022/07/13 09:32:53;;;;;;;4.20;2.53;;;26.90;55.60;;;;;;6127338;23;19998;-81
2022/07/13 09:35:20;;;;;;;3.28;2.50;;;26.90;55.40;;;;;;6077258;23;19998;-80
2022/07/13 09:37:46;;;;;;;6.63;2.47;;;26.90;55.40;;;;;;6101730;23;20011;-80
2022/07/13 09:40:17;;;;;;;6.18;2.20;;;26.90;55.40;;;;;;6101333;23;19998;-80
2022/07/13 09:42:43;;;;;;;4.43;1.80;;;26.90;55.20;;;;;;6127350;23;20002;-79
2022/07/13 09:47:54;;;;;;;3.83;1.75;;;27.00;54.90;;;;;;6105129;23;20009;-81
2022/07/13 09:50:24;;;;;;;1.63;1.52;;;27.00;54.70;;;;;;6101140;23;20032;-80
2022/07/13 09:52:51;;;;;;;1.92;1.40;;;27.00;54.90;;;;;;6101121;23;20048;-80
2022/07/13 09:55:20;;;;;;;4.30;1.60;;;27.10;54.80;;;;;;6101294;23;20009;-80
2022/07/13 09:57:48;;;;;;;5.30;1.80;;;27.10;54.50;;;;;;6126891;23;20013;-80
2022/07/13 10:00:17;;;;;;;2.55;1.45;;;27.10;54.50;;;;;;6100457;23;20346;-80
2022/07/13 10:02:44;;;;;;;3.10;1.30;;;27.10;54.40;;;;;;6101395;23;20002;-80
2022/07/13 10:05:10;;;;;;;2.33;1.23;;;27.10;54.70;;;;;;6101177;23;20061;-80
2022/07/13 10:07:36;;;;;;;6.72;1.73;;;27.20;54.40;;;;;;6100600;23;20002;-80
2022/07/13 10:10:05;;;;;;;4.45;1.40;;;27.20;54.30;;;;;;6101114;23;20370;-79
2022/07/13 10:12:31;;;;;;;2.47;1.42;;;27.20;54.40;;;;;;6100880;23;20082;-77
2022/07/13 10:14:58;;;;;;;1.65;1.48;;;27.20;54.40;;;;;;6100537;23;20037;-75
2022/07/13 10:17:24;;;;;;;2.15;1.30;;;27.20;53.80;;;;;;6100528;23;20002;-76
2022/07/13 10:19:51;;;;;;;1.95;1.15;;;27.20;53.60;;;;;;6100472;23;20334;-73
2022/07/13 10:22:21;;;;;;;1.92;1.17;;;27.20;53.80;;;;;;6126645;23;20554;-72
2022/07/13 10:24:53;;;;;;;1.30;1.10;;;27.20;53.40;;;;;;6100436;23;20029;-73
2022/07/13 10:27:26;;;;;;;1.58;1.10;;;27.20;53.30;;;;;;6100455;23;20056;-77
2022/07/13 10:29:53;;;;;;;0.70;0.70;;;27.30;53.80;;;;;;6101065;23;20009;-76
2022/07/13 10:32:23;;;;;;;1.27;1.05;;;27.30;53.90;;;;;;6100903;23;20081;-70
2022/07/13 10:34:52;;;;;;;1.60;1.00;;;27.30;53.80;;;;;;6126222;23;20009;-78
2022/07/13 10:37:18;;;;;;;3.15;0.90;;;27.30;53.90;;;;;;6100905;23;20005;-78
2022/07/13 10:40:10;;;;;;;2.03;1.20;;;27.30;53.90;;;;;;6100793;23;19998;-79
2022/07/13 10:43:11;;;;;;;0.95;0.75;;;27.40;53.80;;;;;;6126523;23;20057;-79
2022/07/13 10:45:38;;;;;;;1.40;1.02;;;27.40;53.80;;;;;;6041820;23;20030;-78
2022/07/13 10:48:22;;;;;;;2.58;0.80;;;27.40;53.70;;;;;;6066281;23;20007;-79
2022/07/13 10:50:48;;;;;;;1.73;1.15;;;27.40;53.50;;;;;;6065456;23;20022;-80
2022/07/13 10:53:16;;;;;;;2.50;1.02;;;27.50;52.90;;;;;;6017880;23;20086;-80
2022/07/13 10:55:48;;;;;;;1.42;1.00;;;27.40;53.10;;;;;;6042126;23;20030;-80
2022/07/13 10:58:31;;;;;;;1.48;1.00;;;27.50;53.20;;;;;;6042208;23;20027;-80
2022/07/13 11:01:01;;;;;;;1.30;0.88;;;27.50;53.20;;;;;;6065723;23;20017;-80
2022/07/13 11:03:27;;;;;;;2.45;1.00;;;27.50;52.40;;;;;;6042031;23;20110;-81
2022/07/13 11:06:03;;;;;;;1.65;0.90;;;27.60;52.20;;;;;;6041887;23;20007;-80
2022/07/13 11:08:29;;;;;;;2.28;0.80;;;27.60;52.00;;;;;;6042057;23;20011;-75
2022/07/13 11:11:11;;;;;;;1.45;1.00;;;27.60;52.00;;;;;;6065557;23;20017;-75
2022/07/13 11:13:37;;;;;;;3.28;1.08;;;27.60;52.60;;;;;;6041193;23;20098;-79
2022/07/13 11:16:03;;;;;;;1.40;0.93;;;27.60;52.70;;;;;;6041498;23;20037;-79
2022/07/13 11:18:31;;;;;;;2.78;1.20;;;27.60;52.50;;;;;;6044782;23;20385;-79
2022/07/13 11:21:11;;;;;;;1.30;0.90;;;27.60;52.40;;;;;;6100580;23;20025;-80
2022/07/13 11:26:52;;;;;;;1.33;0.88;;;27.70;53.00;;;;;;6125805;23;20086;-76
2022/07/13 11:29:18;;;;;;;0.90;0.90;;;27.60;52.60;;;;;;6126142;23;20030;-75
2022/07/13 11:31:45;;;;;;;0.82;0.70;;;27.60;52.50;;;;;;6100270;23;20057;-78
2022/07/13 11:34:11;;;;;;;3.03;0.90;;;27.60;52.60;;;;;;6125932;23;20029;-78
2022/07/13 11:36:37;;;;;;;0.70;0.70;;;27.70;52.70;;;;;;6100023;23;20065;-68
2022/07/13 11:39:03;;;;;;;2.60;0.82;;;27.70;52.50;;;;;;6100564;23;20009;-76
2022/07/13 11:41:28;;;;;;;1.45;0.80;;;27.70;52.40;;;;;;6125885;23;20006;-78
2022/07/13 11:43:54;;;;;;;0.70;0.70;;;27.70;52.40;;;;;;6125894;23;20041;-75
2022/07/13 11:46:26;;;;;;;0.65;0.60;;;27.70;52.70;;;;;;6126237;23;20013;-77
2022/07/13 11:49:02;;;;;;;1.00;0.90;;;27.60;52.70;;;;;;6125933;23;20010;-76
2022/07/13 11:51:28;;;;;;;1.63;0.90;;;27.60;52.80;;;;;;6100639;23;20057;-77
2022/07/13 11:53:54;;;;;;;0.80;0.80;;;27.60;52.80;;;;;;6125882;23;20006;-75
2022/07/13 11:56:20;;;;;;;1.63;0.75;;;27.60;52.90;;;;;;6100272;23;20036;-76
2022/07/13 11:58:45;;;;;;;1.17;0.90;;;27.60;53.00;;;;;;6125777;23;20002;-76
2022/07/13 12:01:12;;;;;;;0.85;0.70;;;27.70;53.00;;;;;;6126098;23;20001;-76
2022/07/13 12:03:38;;;;;;;1.95;1.00;;;27.70;53.30;;;;;;6100333;23;20026;-75
2022/07/13 12:06:08;;;;;;;0.90;0.80;;;27.70;53.20;;;;;;6100234;23;20005;-75
2022/07/13 12:08:38;;;;;;;1.33;0.80;;;27.70;53.30;;;;;;6125842;23;20006;-76
2022/07/13 12:11:06;;;;;;;1.10;0.60;;;27.70;53.30;;;;;;6100447;23;20010;-76
2022/07/13 12:13:36;;;;;;;0.68;0.60;;;27.70;53.30;;;;;;6100376;23;20483;-77
2022/07/13 12:16:05;;;;;;;0.82;0.70;;;27.70;53.30;;;;;;6100725;23;20002;-77
2022/07/13 12:18:31;;;;;;;1.27;0.80;;;27.70;53.20;;;;;;6100649;23;20125;-76
2022/07/13 12:20:57;;;;;;;1.10;0.70;;;27.80;53.30;;;;;;6099933;23;20012;-76
2022/07/13 12:23:23;;;;;;;1.35;0.65;;;27.80;54.40;;;;;;6100153;23;20002;-77
2022/07/13 12:26:03;;;;;;;0.60;0.60;;;27.80;53.40;;;;;;6099899;23;20077;-76
2022/07/13 12:28:29;;;;;;;1.27;0.80;;;27.80;53.40;;;;;;6127553;23;20036;-76
2022/07/13 12:30:57;;;;;;;1.02;0.70;;;27.80;53.40;;;;;;6127448;23;20001;-77
2022/07/13 12:33:23;;;;;;;0.98;0.70;;;27.80;53.40;;;;;;6102086;23;19998;-78
2022/07/13 12:36:01;;;;;;;0.77;0.70;;;27.80;53.40;;;;;;6127202;23;20030;-76
2022/07/13 12:38:26;;;;;;;0.75;0.75;;;27.80;53.40;;;;;;6103049;23;19998;-77
2022/07/13 12:40:53;;;;;;;0.77;0.63;;;27.80;53.50;;;;;;6101231;23;20083;-76
2022/07/13 12:43:19;;;;;;;0.80;0.80;;;27.80;53.60;;;;;;6127397;23;20029;-77
2022/07/13 12:45:51;;;;;;;1.27;0.90;;;27.80;53.50;;;;;;6101485;23;20006;-77
2022/07/13 12:48:19;;;;;;;0.70;0.70;;;27.80;53.50;;;;;;6127473;23;20346;-76
2022/07/13 12:51:01;;;;;;;0.85;0.80;;;27.80;53.60;;;;;;6101336;23;20121;-76
2022/07/13 12:53:50;;;;;;;0.80;0.70;;;27.80;53.70;;;;;;6101131;23;20006;-77
2022/07/13 12:56:21;;;;;;;0.65;0.60;;;27.80;53.60;;;;;;6102938;23;20021;-75
2022/07/13 12:58:49;;;;;;;1.23;0.82;;;27.90;53.90;;;;;;6101069;23;20040;-74